createdAt,value
2022-08-10T00:02:36.489Z,4185.3
2022-08-10T00:08:25.282Z,4184.8
2022-08-10T00:14:01.751Z,4183.5
2022-08-10T00:20:09.810Z,4179.8
2022-08-10T00:25:42.540Z,4180.8
2022-08-10T00:31:17.422Z,4182.6
2022-08-10T00:36:52.202Z,4181.3
2022-08-10T00:42:27.789Z,4181.3
2022-08-10T00:48:02.475Z,4180.3
2022-08-10T00:53:37.485Z,4180.5
2022-08-10T00:59:12.452Z,4180.1
2022-08-10T01:05:03.968Z,4181.6
2022-08-10T01:10:38.954Z,4180.8
2022-08-10T01:16:36.715Z,4177.3
2022-08-10T01:22:09.264Z,4180.5
2022-08-10T01:27:44.185Z,4179.3
2022-08-10T01:34:03.590Z,4180.3
2022-08-10T01:39:42.553Z,4177.5
2022-08-10T01:45:18.661Z,4178
2022-08-10T01:51:01.574Z,4177.3
2022-08-10T01:56:36.422Z,4179
2022-08-10T02:02:11.340Z,4178
2022-08-10T02:07:46.149Z,4175.9
2022-08-10T02:13:21.080Z,4175.3
2022-08-10T02:19:18.646Z,4174.6
2022-08-10T02:24:51.268Z,4175.1
2022-08-10T02:30:26.217Z,4176.1
2022-08-10T02:36:01.974Z,4174.9
2022-08-10T02:45:34.507Z,4174.6
2022-08-10T02:51:10.188Z,4172.4
2022-08-10T02:56:45.733Z,4176.3
2022-08-10T03:02:21.449Z,4175.9
2022-08-10T03:07:56.567Z,4175.4
2022-08-10T03:13:32.467Z,4174.4
2022-08-10T03:20:41.278Z,4171.4
2022-08-10T03:26:21.524Z,4173.6
2022-08-10T03:31:56.409Z,4171.6
2022-08-10T03:37:40.593Z,4172.1
2022-08-10T03:43:15.391Z,4171.9
2022-08-10T03:49:01.317Z,4173.6
2022-08-10T03:54:37.043Z,4173.3
2022-08-10T04:00:13.562Z,4170.9
2022-08-10T04:05:48.191Z,4167.9
2022-08-10T04:11:23.150Z,4170.2
2022-08-10T04:18:07.372Z,4168.2
2022-08-10T04:23:40.465Z,4168.6
2022-08-10T04:29:15.743Z,4171.8
2022-08-10T04:34:50.834Z,4169.1
2022-08-10T04:40:32.106Z,4168.6
2022-08-10T04:47:00.880Z,4171.6
2022-08-10T04:52:37.577Z,4171.1
2022-08-10T04:58:12.197Z,4167.9
2022-08-10T05:04:40.359Z,4167.7
2022-08-10T05:10:15.826Z,4169.2
2022-08-10T05:15:50.635Z,4166.4
2022-08-10T05:22:05.894Z,4169.1
2022-08-10T05:27:40.848Z,4165.6
2022-08-10T05:33:17.011Z,4168.9
2022-08-10T05:38:51.967Z,4168.7
2022-08-10T05:44:27.042Z,4174.1
2022-08-10T05:50:01.749Z,4171.6
2022-08-10T05:55:36.988Z,4174.9
2022-08-10T06:01:12.779Z,4178.1
2022-08-10T06:06:47.575Z,4175.3
2022-08-10T06:13:02.010Z,4177.8
2022-08-10T06:19:00.539Z,4177.6
2022-08-10T06:24:33.234Z,4178.3
2022-08-10T06:30:22.034Z,4178.1
2022-08-10T06:35:56.964Z,4180.5
2022-08-10T06:42:19.321Z,4177.5
2022-08-10T06:47:55.405Z,4185
2022-08-10T06:53:56.232Z,4183.1
2022-08-10T06:59:32.403Z,4185.8
2022-08-10T07:05:07.285Z,4190
2022-08-10T07:10:47.552Z,4191
2022-08-10T07:16:44.232Z,4185.2
2022-08-10T07:24:04.373Z,4189.8
2022-08-10T07:29:55.887Z,4188.7
2022-08-10T07:35:44.692Z,4189.3
2022-08-10T07:41:20.149Z,4193.4
2022-08-10T07:46:55.222Z,4197
2022-08-10T07:52:31.164Z,4197.5
2022-08-10T07:58:07.465Z,4201.1
2022-08-10T08:03:42.678Z,4203.6
2022-08-10T08:09:17.557Z,4203.4
2022-08-10T08:14:53.470Z,4207.4
2022-08-10T08:20:30.759Z,4204.4
2022-08-10T08:26:06.799Z,4207.4
2022-08-10T08:32:05.634Z,4215.3
2022-08-10T08:38:36.149Z,4204.2
2022-08-10T08:44:35.665Z,4215.1
2022-08-10T08:50:11.321Z,4208.3
2022-08-10T08:56:08.448Z,4212.8
2022-08-10T09:01:44.210Z,4205.9
2022-08-10T09:08:04.519Z,4210.6
2022-08-10T09:13:40.257Z,4221
2022-08-10T09:19:38.028Z,4213
2022-08-10T09:25:11.349Z,4220.2
2022-08-10T09:31:26.671Z,4215.3
2022-08-10T09:37:01.949Z,4212.6
2022-08-10T09:42:38.743Z,4215.6
2022-08-10T09:48:13.692Z,4216.1
2022-08-10T09:53:53.827Z,4230.7
2022-08-10T10:00:03.992Z,4217
2022-08-10T10:05:39.059Z,4217.6
2022-08-10T10:11:25.175Z,4230.4
2022-08-10T10:17:22.000Z,4229.7
2022-08-10T10:22:54.772Z,4223.2
2022-08-10T10:30:00.638Z,4222.7
2022-08-10T10:35:38.053Z,4223.8
2022-08-10T10:41:15.921Z,4229.7
2022-08-10T10:46:52.963Z,4233.6
2022-08-10T10:52:28.111Z,4213.8
2022-08-10T10:58:05.668Z,4225.4
2022-08-10T11:03:40.694Z,4222.7
2022-08-10T11:10:48.278Z,4225.2
2022-08-10T11:17:01.381Z,4225.2
2022-08-10T11:22:38.268Z,4227.4
2022-08-10T11:28:13.344Z,4223.5
2022-08-10T11:35:14.131Z,4216
2022-08-10T11:40:49.370Z,4215.1
2022-08-10T11:46:29.999Z,4214.8
2022-08-10T11:52:05.070Z,4226.9
2022-08-10T11:58:01.650Z,4230
2022-08-10T12:03:37.070Z,4227.2
2022-08-10T12:10:15.436Z,4227.2
2022-08-10T12:15:50.691Z,4223.2
2022-08-10T12:21:25.107Z,4230.7
2022-08-10T12:27:00.006Z,4224.7
2022-08-10T12:32:38.044Z,4232.6
2022-08-10T12:38:13.215Z,4228.4
2022-08-10T12:44:11.281Z,4223.5
2022-08-10T12:50:35.405Z,4221.2
2022-08-10T12:56:10.444Z,4230.2
2022-08-10T13:02:12.205Z,4219.7
2022-08-10T13:08:29.096Z,4220.8
2022-08-10T13:14:04.260Z,4224.2
2022-08-10T13:20:14.895Z,4219.3
2022-08-10T13:25:51.764Z,4223.5
2022-08-10T13:32:12.227Z,4226.2
2022-08-10T13:37:47.441Z,4219.3
2022-08-10T13:43:22.410Z,4224.5
2022-08-10T13:49:00.758Z,4231.6
2022-08-10T13:54:35.804Z,4214
2022-08-10T14:00:40.086Z,4228.4
2022-08-10T14:06:15.394Z,4223
2022-08-10T14:11:50.465Z,4224.2
2022-08-10T14:17:47.406Z,4228
2022-08-10T14:23:21.336Z,4224.7
2022-08-10T14:28:56.211Z,4223.7
2022-08-10T14:36:25.551Z,4223.3
2022-08-10T14:42:28.489Z,4229.4
2022-08-10T14:48:11.775Z,4219.5
2022-08-10T14:53:47.376Z,4219.7
2022-08-10T15:00:44.029Z,4229.4
2022-08-10T15:06:19.757Z,4220
2022-08-10T15:12:28.406Z,4224.4
2022-08-10T15:18:27.674Z,4228.2
2022-08-10T15:24:11.419Z,4225.2
2022-08-10T15:29:59.361Z,4219
2022-08-10T15:35:39.706Z,4220.8
2022-08-10T15:42:00.804Z,4222.3
2022-08-10T15:47:48.071Z,4225.2
2022-08-10T15:53:29.489Z,4217.1
2022-08-10T15:59:09.341Z,4219.2
2022-08-10T16:04:48.448Z,4223.8
2022-08-10T16:10:39.543Z,4230.7
2022-08-10T16:16:36.512Z,4229.5
2022-08-10T16:22:38.710Z,4230.5
2022-08-10T16:28:25.413Z,4223.2
2022-08-10T16:34:00.256Z,4223.7
2022-08-10T16:40:03.579Z,4225.5
2022-08-10T16:45:39.685Z,4226.5
2022-08-10T16:51:18.663Z,4218.5
2022-08-10T16:56:53.581Z,4230
2022-08-10T17:02:29.420Z,4223.5
2022-08-10T17:08:04.469Z,4225.4
2022-08-10T17:13:39.316Z,4217
2022-08-10T17:19:35.798Z,4217.1
2022-08-10T17:25:08.626Z,4210.1
2022-08-10T17:30:59.474Z,4217.3
2022-08-10T17:36:34.964Z,4209.4
2022-08-10T17:42:09.605Z,4211.3
2022-08-10T17:47:44.277Z,4212.5
2022-08-10T17:53:20.100Z,4209.4
2022-08-10T17:58:54.877Z,4210.8
2022-08-10T18:04:43.601Z,4213.1
2022-08-10T18:10:18.470Z,4213.5
2022-08-10T18:15:53.120Z,4214.8
2022-08-10T18:21:31.897Z,4212.6
2022-08-10T18:27:06.578Z,4214.8
2022-08-10T18:32:41.230Z,4212.5
2022-08-10T18:38:16.545Z,4213.6
2022-08-10T18:44:13.688Z,4210.8
2022-08-10T18:49:48.854Z,4209.8
2022-08-10T18:56:11.002Z,4207.6
2022-08-10T19:01:45.821Z,4208.9
2022-08-10T19:07:20.609Z,4206.3
2022-08-10T19:12:55.767Z,4207.9
2022-08-10T19:18:52.306Z,4204.6
2022-08-10T19:24:25.029Z,4206.1
2022-08-10T19:30:14.539Z,4207.6
2022-08-10T19:36:06.466Z,4205.6
2022-08-10T19:41:46.241Z,4206.9
2022-08-10T19:47:21.949Z,4205.8
2022-08-10T19:52:56.787Z,4205.3
2022-08-10T19:58:31.757Z,4202.1
2022-08-10T20:04:06.548Z,4202.4
2022-08-10T20:09:42.447Z,4203.2
2022-08-10T20:15:17.201Z,4203.6
2022-08-10T20:20:53.012Z,4204.1
2022-08-10T20:26:27.825Z,4203.9
2022-08-10T20:32:12.667Z,4203.2
2022-08-10T20:38:08.093Z,4203.6
2022-08-10T20:43:43.362Z,4202.1
2022-08-10T20:49:19.129Z,4199.4
2022-08-10T20:54:53.886Z,4202.7
2022-08-10T21:00:28.505Z,4202.9
2022-08-10T21:06:04.393Z,4202.9
2022-08-10T21:11:39.235Z,4201.2
2022-08-10T21:17:39.365Z,4199.9
2022-08-10T21:23:12.760Z,4200.2
2022-08-10T21:28:51.333Z,4202.7
2022-08-10T21:34:33.704Z,4201.1
2022-08-10T21:40:40.864Z,4200.7
2022-08-10T21:46:19.004Z,4200.6
2022-08-10T21:52:07.191Z,4199.9
2022-08-10T21:57:46.116Z,4201.6
2022-08-10T22:03:21.466Z,4201.1
2022-08-10T22:08:56.405Z,4199.7
2022-08-10T22:14:34.950Z,4200.4
2022-08-10T22:20:10.113Z,4199.4
2022-08-10T22:25:45.267Z,4200.2
2022-08-10T22:31:50.232Z,4198.9
2022-08-10T22:37:26.309Z,4200.6
2022-08-10T22:43:36.588Z,4197.2
2022-08-10T22:49:12.143Z,4196.9
2022-08-10T22:54:47.025Z,4196.9
2022-08-10T23:00:32.550Z,4196.9
2022-08-10T23:06:07.468Z,4198.2
2022-08-10T23:11:42.338Z,4197.7
2022-08-10T23:18:03.471Z,4195.9
2022-08-10T23:23:36.275Z,4197
2022-08-10T23:29:13.310Z,4196
2022-08-10T23:36:36.611Z,4195.9
2022-08-10T23:42:11.734Z,4196.4
2022-08-10T23:47:46.524Z,4197
2022-08-10T23:53:26.166Z,4195.2
2022-08-10T23:59:01.024Z,4193.4
